createdAt,value
2023-03-23T16:00:43.112Z,13.31
2023-03-23T16:05:45.776Z,13.33
2023-03-23T16:10:49.139Z,13.34
2023-03-23T16:15:52.058Z,13.28
2023-03-23T16:20:54.492Z,13.24
2023-03-23T16:25:57.115Z,13.19
2023-03-23T16:30:59.890Z,13.12
2023-03-23T16:36:03.215Z,13.07
2023-03-23T16:41:06.035Z,12.99
2023-03-23T16:46:11.686Z,12.93
2023-03-23T16:51:14.119Z,12.83
2023-03-23T16:56:16.628Z,12.72
2023-03-23T17:01:20.142Z,12.64
2023-03-23T17:06:22.794Z,12.55
2023-03-23T17:11:25.316Z,12.51
2023-03-23T17:16:27.807Z,12.48
2023-03-23T17:21:30.299Z,12.43
2023-03-23T17:26:33.567Z,12.40
2023-03-23T17:31:36.653Z,12.35
2023-03-23T17:36:39.042Z,12.28
2023-03-23T17:41:41.448Z,12.17
2023-03-23T17:46:43.920Z,12.12
2023-03-23T17:51:46.481Z,12.09
2023-03-23T17:56:50.406Z,11.98
2023-03-23T18:01:53.814Z,11.86
2023-03-23T18:06:57.629Z,11.69
2023-03-23T18:12:00.271Z,11.54
2023-03-23T18:17:02.770Z,11.43
2023-03-23T18:22:05.240Z,11.28
2023-03-23T18:27:07.670Z,11.12
2023-03-23T18:32:10.358Z,11.00
2023-03-23T18:37:13.633Z,10.88
2023-03-23T18:42:16.128Z,10.77
2023-03-23T18:47:18.521Z,10.65
2023-03-23T18:52:22.432Z,10.57
2023-03-23T18:57:25.569Z,10.45
2023-03-23T19:02:28.131Z,10.38
2023-03-23T19:07:31.464Z,10.32
2023-03-23T19:12:33.894Z,10.30
2023-03-23T19:17:36.925Z,10.30
2023-03-23T19:22:42.016Z,10.32
2023-03-23T19:28:27.444Z,10.26
2023-03-23T19:33:07.106Z,10.23
2023-03-23T19:38:10.388Z,10.21
2023-03-23T19:43:12.777Z,10.18
2023-03-23T19:48:16.124Z,10.12
2023-03-23T19:53:19.302Z,10.00
2023-03-23T19:58:22.252Z,9.95
2023-03-23T20:03:26.027Z,9.94
2023-03-23T20:08:29.079Z,9.99
2023-03-23T20:13:32.174Z,9.94
2023-03-23T20:18:34.748Z,9.79
2023-03-23T20:23:38.416Z,9.75
2023-03-23T20:28:42.615Z,9.73
2023-03-23T20:33:45.121Z,9.83
2023-03-23T20:38:48.751Z,9.90
2023-03-23T20:43:51.389Z,9.86
2023-03-23T20:48:53.786Z,9.82
2023-03-23T20:53:56.220Z,9.73
2023-03-23T20:58:58.651Z,9.65
2023-03-23T21:04:03.367Z,9.64
2023-03-23T21:09:07.053Z,9.60
2023-03-23T21:14:10.424Z,9.44
2023-03-23T21:19:13.318Z,9.41
2023-03-23T21:24:16.668Z,9.40
2023-03-23T21:29:19.517Z,9.15
2023-03-23T21:34:21.958Z,8.92
2023-03-23T21:39:24.356Z,8.78
2023-03-23T21:44:26.836Z,8.71
2023-03-23T21:49:30.496Z,8.64
2023-03-23T21:54:34.523Z,8.67
2023-03-23T21:59:36.917Z,8.66
2023-03-23T22:04:39.410Z,8.74
2023-03-23T22:09:45.142Z,8.78
2023-03-23T22:14:47.569Z,8.76
2023-03-23T22:19:50.234Z,8.73
2023-03-23T22:24:52.858Z,8.69
2023-03-23T22:29:55.549Z,8.62
2023-03-23T22:34:58.008Z,8.59
2023-03-23T22:40:00.421Z,8.55
2023-03-23T22:45:03.248Z,8.56
2023-03-23T22:50:10.788Z,8.63
2023-03-23T22:55:13.118Z,8.59
2023-03-23T23:00:15.830Z,8.48
2023-03-23T23:05:18.607Z,8.42
2023-03-23T23:10:20.986Z,8.31
2023-03-23T23:15:24.717Z,8.24
2023-03-23T23:20:27.403Z,8.18
2023-03-23T23:25:30.969Z,8.16
2023-03-23T23:30:33.777Z,8.09
2023-03-23T23:35:38.158Z,8.09
2023-03-23T23:40:41.538Z,8.00
2023-03-23T23:45:44.170Z,7.92
2023-03-23T23:50:47.751Z,7.88
2023-03-23T23:55:50.609Z,7.83
